sensor_id;sensor_type;location;lat;lon;timestamp;P1;durP1;ratioP1;P2;durP2;ratioP2
23129;SDS011;11734;51.046;13.778;2024-01-10T00:00:49;51.57;;;30.33;;
23129;SDS011;11734;51.046;13.778;2024-01-10T00:03:16;53.10;;;30.50;;
23129;SDS011;11734;51.046;13.778;2024-01-10T00:05:44;52.80;;;29.50;;
23129;SDS011;11734;51.046;13.778;2024-01-10T00:08:11;59.10;;;32.87;;
23129;SDS011;11734;51.046;13.778;2024-01-10T00:10:38;58.93;;;32.40;;
23129;SDS011;11734;51.046;13.778;2024-01-10T00:13:06;64.67;;;33.83;;
23129;SDS011;11734;51.046;13.778;2024-01-10T00:15:33;60.03;;;32.87;;
23129;SDS011;11734;51.046;13.778;2024-01-10T00:18:01;55.90;;;31.90;;
23129;SDS011;11734;51.046;13.778;2024-01-10T00:20:28;59.53;;;32.43;;
23129;SDS011;11734;51.046;13.778;2024-01-10T00:22:56;57.87;;;32.93;;
23129;SDS011;11734;51.046;13.778;2024-01-10T00:25:23;56.90;;;33.20;;
23129;SDS011;11734;51.046;13.778;2024-01-10T00:27:51;56.17;;;32.77;;
23129;SDS011;11734;51.046;13.778;2024-01-10T00:30:18;56.57;;;31.73;;
23129;SDS011;11734;51.046;13.778;2024-01-10T00:32:46;54.53;;;31.00;;
23129;SDS011;11734;51.046;13.778;2024-01-10T00:35:13;56.07;;;31.83;;
23129;SDS011;11734;51.046;13.778;2024-01-10T00:37:41;59.83;;;32.57;;
23129;SDS011;11734;51.046;13.778;2024-01-10T00:40:09;55.87;;;31.57;;
23129;SDS011;11734;51.046;13.778;2024-01-10T00:42:36;57.73;;;32.30;;
23129;SDS011;11734;51.046;13.778;2024-01-10T00:45:04;56.00;;;31.63;;
23129;SDS011;11734;51.046;13.778;2024-01-10T00:47:31;56.70;;;32.30;;
23129;SDS011;11734;51.046;13.778;2024-01-10T00:49:59;56.87;;;31.37;;
23129;SDS011;11734;51.046;13.778;2024-01-10T00:52:27;54.40;;;31.63;;
23129;SDS011;11734;51.046;13.778;2024-01-10T00:54:54;55.50;;;31.83;;
23129;SDS011;11734;51.046;13.778;2024-01-10T00:57:21;58.03;;;32.43;;
23129;SDS011;11734;51.046;13.778;2024-01-10T00:59:49;56.70;;;31.67;;
23129;SDS011;11734;51.046;13.778;2024-01-10T01:02:16;55.10;;;31.80;;
23129;SDS011;11734;51.046;13.778;2024-01-10T01:04:44;55.93;;;31.60;;
23129;SDS011;11734;51.046;13.778;2024-01-10T01:07:11;55.03;;;31.80;;
23129;SDS011;11734;51.046;13.778;2024-01-10T01:09:39;56.90;;;31.27;;
23129;SDS011;11734;51.046;13.778;2024-01-10T01:12:06;56.33;;;31.03;;
23129;SDS011;11734;51.046;13.778;2024-01-10T01:14:33;55.67;;;31.57;;
23129;SDS011;11734;51.046;13.778;2024-01-10T01:17:01;51.70;;;29.90;;
23129;SDS011;11734;51.046;13.778;2024-01-10T01:19:28;54.87;;;31.47;;
23129;SDS011;11734;51.046;13.778;2024-01-10T01:21:55;53.87;;;30.27;;
23129;SDS011;11734;51.046;13.778;2024-01-10T01:24:23;53.63;;;30.60;;
23129;SDS011;11734;51.046;13.778;2024-01-10T01:26:50;55.37;;;31.07;;
23129;SDS011;11734;51.046;13.778;2024-01-10T01:29:18;56.53;;;31.10;;
23129;SDS011;11734;51.046;13.778;2024-01-10T01:31:46;59.37;;;31.60;;
23129;SDS011;11734;51.046;13.778;2024-01-10T01:34:14;53.23;;;30.80;;
23129;SDS011;11734;51.046;13.778;2024-01-10T01:36:41;56.00;;;31.40;;
23129;SDS011;11734;51.046;13.778;2024-01-10T01:39:08;54.37;;;31.13;;
23129;SDS011;11734;51.046;13.778;2024-01-10T01:41:36;56.53;;;30.23;;
23129;SDS011;11734;51.046;13.778;2024-01-10T01:44:04;54.67;;;30.50;;
23129;SDS011;11734;51.046;13.778;2024-01-10T01:46:31;55.07;;;31.47;;
23129;SDS011;11734;51.046;13.778;2024-01-10T01:48:59;54.07;;;30.63;;
23129;SDS011;11734;51.046;13.778;2024-01-10T01:51:28;54.20;;;30.43;;
23129;SDS011;11734;51.046;13.778;2024-01-10T01:53:56;54.87;;;31.07;;
23129;SDS011;11734;51.046;13.778;2024-01-10T01:56:23;53.90;;;30.43;;
23129;SDS011;11734;51.046;13.778;2024-01-10T01:58:51;52.10;;;29.43;;
23129;SDS011;11734;51.046;13.778;2024-01-10T02:01:19;56.13;;;29.73;;
23129;SDS011;11734;51.046;13.778;2024-01-10T02:03:49;53.63;;;30.17;;
23129;SDS011;11734;51.046;13.778;2024-01-10T02:06:16;59.00;;;31.27;;
23129;SDS011;11734;51.046;13.778;2024-01-10T02:08:44;50.40;;;30.63;;
23129;SDS011;11734;51.046;13.778;2024-01-10T02:11:12;53.73;;;30.97;;
23129;SDS011;11734;51.046;13.778;2024-01-10T02:13:39;53.87;;;31.57;;
23129;SDS011;11734;51.046;13.778;2024-01-10T02:16:07;57.53;;;30.43;;
23129;SDS011;11734;51.046;13.778;2024-01-10T02:18:35;52.17;;;29.53;;
23129;SDS011;11734;51.046;13.778;2024-01-10T02:21:02;53.17;;;31.43;;
23129;SDS011;11734;51.046;13.778;2024-01-10T02:23:30;53.90;;;30.60;;
23129;SDS011;11734;51.046;13.778;2024-01-10T02:25:57;50.80;;;29.83;;
23129;SDS011;11734;51.046;13.778;2024-01-10T02:28:24;55.83;;;30.17;;
23129;SDS011;11734;51.046;13.778;2024-01-10T02:30:52;52.25;;;30.40;;
23129;SDS011;11734;51.046;13.778;2024-01-10T02:33:20;50.80;;;30.42;;
23129;SDS011;11734;51.046;13.778;2024-01-10T02:35:47;55.28;;;30.75;;
23129;SDS011;11734;51.046;13.778;2024-01-10T02:38:15;55.93;;;30.77;;
23129;SDS011;11734;51.046;13.778;2024-01-10T02:40:43;53.43;;;30.03;;
23129;SDS011;11734;51.046;13.778;2024-01-10T02:43:10;55.67;;;31.63;;
23129;SDS011;11734;51.046;13.778;2024-01-10T02:45:37;52.60;;;30.77;;
23129;SDS011;11734;51.046;13.778;2024-01-10T02:48:05;51.40;;;29.67;;
23129;SDS011;11734;51.046;13.778;2024-01-10T02:50:32;54.83;;;30.10;;
23129;SDS011;11734;51.046;13.778;2024-01-10T02:52:59;52.97;;;30.33;;
23129;SDS011;11734;51.046;13.778;2024-01-10T02:55:27;54.30;;;29.57;;
23129;SDS011;11734;51.046;13.778;2024-01-10T02:57:54;55.67;;;30.83;;
23129;SDS011;11734;51.046;13.778;2024-01-10T03:00:22;59.73;;;32.33;;
23129;SDS011;11734;51.046;13.778;2024-01-10T03:02:49;51.30;;;30.30;;
23129;SDS011;11734;51.046;13.778;2024-01-10T03:05:16;52.20;;;30.30;;
23129;SDS011;11734;51.046;13.778;2024-01-10T03:07:43;53.20;;;31.23;;
23129;SDS011;11734;51.046;13.778;2024-01-10T03:10:11;52.90;;;31.43;;
23129;SDS011;11734;51.046;13.778;2024-01-10T03:12:38;55.97;;;32.20;;
23129;SDS011;11734;51.046;13.778;2024-01-10T03:15:07;52.87;;;30.40;;
23129;SDS011;11734;51.046;13.778;2024-01-10T03:17:34;53.63;;;30.43;;
23129;SDS011;11734;51.046;13.778;2024-01-10T03:20:02;55.90;;;32.33;;
23129;SDS011;11734;51.046;13.778;2024-01-10T03:22:31;58.20;;;31.50;;
23129;SDS011;11734;51.046;13.778;2024-01-10T03:24:58;58.07;;;31.53;;
23129;SDS011;11734;51.046;13.778;2024-01-10T03:27:26;58.20;;;32.23;;
23129;SDS011;11734;51.046;13.778;2024-01-10T03:29:53;58.42;;;33.45;;
23129;SDS011;11734;51.046;13.778;2024-01-10T03:32:20;61.00;;;32.77;;
23129;SDS011;11734;51.046;13.778;2024-01-10T03:34:48;52.50;;;31.13;;
23129;SDS011;11734;51.046;13.778;2024-01-10T03:37:18;53.40;;;30.97;;
23129;SDS011;11734;51.046;13.778;2024-01-10T03:39:45;57.87;;;31.97;;
23129;SDS011;11734;51.046;13.778;2024-01-10T03:42:12;55.80;;;32.30;;
23129;SDS011;11734;51.046;13.778;2024-01-10T03:44:42;56.40;;;31.87;;
23129;SDS011;11734;51.046;13.778;2024-01-10T03:47:09;55.33;;;32.63;;
23129;SDS011;11734;51.046;13.778;2024-01-10T03:49:36;56.10;;;32.27;;
23129;SDS011;11734;51.046;13.778;2024-01-10T03:52:04;60.73;;;33.73;;
23129;SDS011;11734;51.046;13.778;2024-01-10T03:54:31;58.63;;;32.83;;
23129;SDS011;11734;51.046;13.778;2024-01-10T03:57:00;58.60;;;31.97;;
23129;SDS011;11734;51.046;13.778;2024-01-10T03:59:27;58.77;;;33.43;;
23129;SDS011;11734;51.046;13.778;2024-01-10T04:01:54;63.47;;;34.20;;
23129;SDS011;11734;51.046;13.778;2024-01-10T04:04:22;65.47;;;34.50;;
23129;SDS011;11734;51.046;13.778;2024-01-10T04:06:49;59.27;;;33.97;;
23129;SDS011;11734;51.046;13.778;2024-01-10T04:09:16;60.17;;;34.23;;
23129;SDS011;11734;51.046;13.778;2024-01-10T04:11:44;60.03;;;33.93;;
23129;SDS011;11734;51.046;13.778;2024-01-10T04:14:12;65.05;;;34.67;;
23129;SDS011;11734;51.046;13.778;2024-01-10T04:16:39;61.07;;;35.10;;
23129;SDS011;11734;51.046;13.778;2024-01-10T04:19:07;63.37;;;34.83;;
23129;SDS011;11734;51.046;13.778;2024-01-10T04:21:34;67.07;;;35.45;;
23129;SDS011;11734;51.046;13.778;2024-01-10T04:24:01;61.30;;;35.75;;
23129;SDS011;11734;51.046;13.778;2024-01-10T04:26:28;64.60;;;36.07;;
23129;SDS011;11734;51.046;13.778;2024-01-10T04:28:56;64.53;;;36.00;;
23129;SDS011;11734;51.046;13.778;2024-01-10T04:31:23;66.77;;;36.77;;
23129;SDS011;11734;51.046;13.778;2024-01-10T04:33:50;61.37;;;34.43;;
23129;SDS011;11734;51.046;13.778;2024-01-10T04:36:18;66.00;;;35.17;;
23129;SDS011;11734;51.046;13.778;2024-01-10T04:38:45;64.37;;;35.87;;
23129;SDS011;11734;51.046;13.778;2024-01-10T04:41:12;65.23;;;36.53;;
23129;SDS011;11734;51.046;13.778;2024-01-10T04:43:40;62.83;;;35.53;;
23129;SDS011;11734;51.046;13.778;2024-01-10T04:46:07;66.72;;;36.88;;
23129;SDS011;11734;51.046;13.778;2024-01-10T04:48:36;68.05;;;37.72;;
23129;SDS011;11734;51.046;13.778;2024-01-10T04:51:04;68.53;;;37.30;;
23129;SDS011;11734;51.046;13.778;2024-01-10T04:53:31;74.50;;;38.63;;
23129;SDS011;11734;51.046;13.778;2024-01-10T04:55:59;71.37;;;39.20;;
23129;SDS011;11734;51.046;13.778;2024-01-10T04:58:27;63.63;;;35.67;;
23129;SDS011;11734;51.046;13.778;2024-01-10T05:00:55;60.03;;;33.13;;
23129;SDS011;11734;51.046;13.778;2024-01-10T05:03:23;58.37;;;33.20;;
23129;SDS011;11734;51.046;13.778;2024-01-10T05:05:50;55.67;;;33.03;;
23129;SDS011;11734;51.046;13.778;2024-01-10T05:08:18;56.23;;;32.67;;
23129;SDS011;11734;51.046;13.778;2024-01-10T05:10:47;57.13;;;31.63;;
23129;SDS011;11734;51.046;13.778;2024-01-10T05:13:15;60.17;;;32.03;;
23129;SDS011;11734;51.046;13.778;2024-01-10T05:15:42;55.40;;;30.50;;
23129;SDS011;11734;51.046;13.778;2024-01-10T05:18:09;55.60;;;31.13;;
23129;SDS011;11734;51.046;13.778;2024-01-10T05:20:37;55.87;;;31.07;;
23129;SDS011;11734;51.046;13.778;2024-01-10T05:23:04;60.40;;;32.22;;
23129;SDS011;11734;51.046;13.778;2024-01-10T05:25:32;54.17;;;31.20;;
23129;SDS011;11734;51.046;13.778;2024-01-10T05:27:59;55.63;;;30.87;;
23129;SDS011;11734;51.046;13.778;2024-01-10T05:30:26;53.83;;;31.13;;
23129;SDS011;11734;51.046;13.778;2024-01-10T05:32:54;56.57;;;31.93;;
23129;SDS011;11734;51.046;13.778;2024-01-10T05:35:22;55.67;;;30.80;;
23129;SDS011;11734;51.046;13.778;2024-01-10T05:37:49;55.13;;;30.47;;
23129;SDS011;11734;51.046;13.778;2024-01-10T05:40:17;57.53;;;32.00;;
23129;SDS011;11734;51.046;13.778;2024-01-10T05:42:44;57.93;;;30.80;;
23129;SDS011;11734;51.046;13.778;2024-01-10T05:45:12;55.37;;;31.87;;
23129;SDS011;11734;51.046;13.778;2024-01-10T05:47:39;55.07;;;31.40;;
23129;SDS011;11734;51.046;13.778;2024-01-10T05:50:07;54.33;;;32.13;;
23129;SDS011;11734;51.046;13.778;2024-01-10T05:52:35;59.03;;;32.60;;
23129;SDS011;11734;51.046;13.778;2024-01-10T05:55:02;54.83;;;32.30;;
23129;SDS011;11734;51.046;13.778;2024-01-10T05:57:30;59.97;;;32.90;;
23129;SDS011;11734;51.046;13.778;2024-01-10T05:59:58;59.70;;;33.28;;
23129;SDS011;11734;51.046;13.778;2024-01-10T06:02:26;61.30;;;32.70;;
23129;SDS011;11734;51.046;13.778;2024-01-10T06:04:54;58.73;;;33.27;;
23129;SDS011;11734;51.046;13.778;2024-01-10T06:07:21;57.83;;;33.47;;
23129;SDS011;11734;51.046;13.778;2024-01-10T06:09:48;56.50;;;33.73;;
23129;SDS011;11734;51.046;13.778;2024-01-10T06:12:16;60.43;;;33.50;;
23129;SDS011;11734;51.046;13.778;2024-01-10T06:14:44;63.60;;;34.23;;
23129;SDS011;11734;51.046;13.778;2024-01-10T06:17:11;59.33;;;33.90;;
23129;SDS011;11734;51.046;13.778;2024-01-10T06:19:38;59.37;;;32.30;;
23129;SDS011;11734;51.046;13.778;2024-01-10T06:22:06;58.23;;;33.37;;
23129;SDS011;11734;51.046;13.778;2024-01-10T06:24:33;54.53;;;31.40;;
23129;SDS011;11734;51.046;13.778;2024-01-10T06:27:00;55.73;;;32.20;;
23129;SDS011;11734;51.046;13.778;2024-01-10T06:29:28;57.73;;;32.33;;
23129;SDS011;11734;51.046;13.778;2024-01-10T06:31:55;59.53;;;33.13;;
23129;SDS011;11734;51.046;13.778;2024-01-10T06:34:24;63.03;;;32.90;;
23129;SDS011;11734;51.046;13.778;2024-01-10T06:36:51;57.73;;;33.37;;
23129;SDS011;11734;51.046;13.778;2024-01-10T06:39:18;58.47;;;32.97;;
23129;SDS011;11734;51.046;13.778;2024-01-10T06:41:47;56.33;;;31.97;;
23129;SDS011;11734;51.046;13.778;2024-01-10T06:44:15;57.07;;;32.20;;
23129;SDS011;11734;51.046;13.778;2024-01-10T06:46:45;60.67;;;33.47;;
23129;SDS011;11734;51.046;13.778;2024-01-10T06:49:13;59.43;;;33.87;;
23129;SDS011;11734;51.046;13.778;2024-01-10T06:51:40;58.10;;;33.93;;
23129;SDS011;11734;51.046;13.778;2024-01-10T06:54:07;64.85;;;34.97;;
23129;SDS011;11734;51.046;13.778;2024-01-10T06:56:35;64.25;;;35.92;;
23129;SDS011;11734;51.046;13.778;2024-01-10T06:59:02;62.90;;;33.30;;
23129;SDS011;11734;51.046;13.778;2024-01-10T07:01:29;60.07;;;34.33;;
23129;SDS011;11734;51.046;13.778;2024-01-10T07:03:57;61.60;;;34.60;;
23129;SDS011;11734;51.046;13.778;2024-01-10T07:06:24;58.30;;;34.85;;
23129;SDS011;11734;51.046;13.778;2024-01-10T07:08:51;66.63;;;36.43;;
23129;SDS011;11734;51.046;13.778;2024-01-10T07:11:19;66.00;;;35.67;;
23129;SDS011;11734;51.046;13.778;2024-01-10T07:13:46;66.88;;;35.55;;
23129;SDS011;11734;51.046;13.778;2024-01-10T07:16:14;65.40;;;37.47;;
23129;SDS011;11734;51.046;13.778;2024-01-10T07:18:42;66.53;;;36.80;;
23129;SDS011;11734;51.046;13.778;2024-01-10T07:21:12;66.93;;;35.97;;
23129;SDS011;11734;51.046;13.778;2024-01-10T07:23:39;70.23;;;37.50;;
23129;SDS011;11734;51.046;13.778;2024-01-10T07:26:07;63.43;;;36.73;;
23129;SDS011;11734;51.046;13.778;2024-01-10T07:28:35;66.97;;;37.33;;
23129;SDS011;11734;51.046;13.778;2024-01-10T07:31:04;61.23;;;35.20;;
23129;SDS011;11734;51.046;13.778;2024-01-10T07:33:32;65.50;;;36.10;;
23129;SDS011;11734;51.046;13.778;2024-01-10T07:36:00;66.87;;;37.80;;
23129;SDS011;11734;51.046;13.778;2024-01-10T07:38:28;68.03;;;37.37;;
23129;SDS011;11734;51.046;13.778;2024-01-10T07:40:56;66.03;;;36.37;;
23129;SDS011;11734;51.046;13.778;2024-01-10T07:43:25;63.93;;;37.43;;
23129;SDS011;11734;51.046;13.778;2024-01-10T07:45:56;68.00;;;37.50;;
23129;SDS011;11734;51.046;13.778;2024-01-10T07:48:23;67.00;;;37.50;;
23129;SDS011;11734;51.046;13.778;2024-01-10T07:50:51;67.07;;;37.37;;
23129;SDS011;11734;51.046;13.778;2024-01-10T07:53:18;68.93;;;36.60;;
23129;SDS011;11734;51.046;13.778;2024-01-10T07:55:46;69.33;;;35.70;;
23129;SDS011;11734;51.046;13.778;2024-01-10T07:58:13;68.53;;;36.70;;
23129;SDS011;11734;51.046;13.778;2024-01-10T08:00:42;57.90;;;33.97;;
23129;SDS011;11734;51.046;13.778;2024-01-10T08:03:09;58.53;;;33.63;;
23129;SDS011;11734;51.046;13.778;2024-01-10T08:05:37;60.30;;;34.33;;
23129;SDS011;11734;51.046;13.778;2024-01-10T08:08:04;60.43;;;33.20;;
23129;SDS011;11734;51.046;13.778;2024-01-10T08:10:32;59.30;;;32.37;;
23129;SDS011;11734;51.046;13.778;2024-01-10T08:13:01;58.80;;;32.43;;
23129;SDS011;11734;51.046;13.778;2024-01-10T08:15:28;53.33;;;30.07;;
23129;SDS011;11734;51.046;13.778;2024-01-10T08:17:56;55.57;;;30.33;;
23129;SDS011;11734;51.046;13.778;2024-01-10T08:20:24;55.07;;;31.20;;
23129;SDS011;11734;51.046;13.778;2024-01-10T08:22:51;55.00;;;29.07;;
23129;SDS011;11734;51.046;13.778;2024-01-10T08:25:20;51.43;;;29.03;;
23129;SDS011;11734;51.046;13.778;2024-01-10T08:27:47;51.70;;;30.53;;
23129;SDS011;11734;51.046;13.778;2024-01-10T08:30:15;50.07;;;28.83;;
23129;SDS011;11734;51.046;13.778;2024-01-10T08:32:42;47.47;;;27.63;;
23129;SDS011;11734;51.046;13.778;2024-01-10T08:35:10;48.27;;;28.23;;
23129;SDS011;11734;51.046;13.778;2024-01-10T08:37:38;45.90;;;26.20;;
23129;SDS011;11734;51.046;13.778;2024-01-10T08:40:09;48.40;;;27.47;;
23129;SDS011;11734;51.046;13.778;2024-01-10T08:42:41;44.80;;;26.20;;
23129;SDS011;11734;51.046;13.778;2024-01-10T08:45:08;47.00;;;27.60;;
23129;SDS011;11734;51.046;13.778;2024-01-10T08:47:37;42.37;;;25.00;;
23129;SDS011;11734;51.046;13.778;2024-01-10T08:50:05;45.30;;;25.97;;
23129;SDS011;11734;51.046;13.778;2024-01-10T08:52:35;42.73;;;24.77;;
23129;SDS011;11734;51.046;13.778;2024-01-10T08:55:06;40.43;;;24.33;;
23129;SDS011;11734;51.046;13.778;2024-01-10T08:57:39;40.20;;;24.60;;
23129;SDS011;11734;51.046;13.778;2024-01-10T09:00:06;46.30;;;25.23;;
23129;SDS011;11734;51.046;13.778;2024-01-10T09:02:38;41.80;;;24.47;;
23129;SDS011;11734;51.046;13.778;2024-01-10T09:05:05;40.97;;;24.63;;
23129;SDS011;11734;51.046;13.778;2024-01-10T09:07:36;41.90;;;25.20;;
23129;SDS011;11734;51.046;13.778;2024-01-10T09:10:04;42.27;;;25.63;;
23129;SDS011;11734;51.046;13.778;2024-01-10T09:12:31;43.30;;;25.30;;
23129;SDS011;11734;51.046;13.778;2024-01-10T09:14:59;44.77;;;24.87;;
23129;SDS011;11734;51.046;13.778;2024-01-10T09:17:27;39.00;;;24.27;;
23129;SDS011;11734;51.046;13.778;2024-01-10T09:19:54;47.17;;;26.23;;
23129;SDS011;11734;51.046;13.778;2024-01-10T09:22:22;44.03;;;26.13;;
23129;SDS011;11734;51.046;13.778;2024-01-10T09:24:49;39.33;;;24.13;;
23129;SDS011;11734;51.046;13.778;2024-01-10T09:27:16;47.47;;;25.53;;
23129;SDS011;11734;51.046;13.778;2024-01-10T09:29:44;42.40;;;24.60;;
23129;SDS011;11734;51.046;13.778;2024-01-10T09:32:11;46.50;;;25.70;;
23129;SDS011;11734;51.046;13.778;2024-01-10T09:34:38;39.10;;;25.30;;
23129;SDS011;11734;51.046;13.778;2024-01-10T09:37:06;42.93;;;25.77;;
23129;SDS011;11734;51.046;13.778;2024-01-10T09:39:33;45.83;;;25.80;;
23129;SDS011;11734;51.046;13.778;2024-01-10T09:42:00;42.63;;;26.17;;
23129;SDS011;11734;51.046;13.778;2024-01-10T09:44:30;43.03;;;25.43;;
23129;SDS011;11734;51.046;13.778;2024-01-10T09:46:58;42.30;;;25.00;;
23129;SDS011;11734;51.046;13.778;2024-01-10T09:49:25;42.27;;;25.43;;
23129;SDS011;11734;51.046;13.778;2024-01-10T09:52:03;44.30;;;26.33;;
23129;SDS011;11734;51.046;13.778;2024-01-10T09:54:31;42.17;;;25.37;;
23129;SDS011;11734;51.046;13.778;2024-01-10T09:56:58;43.87;;;25.13;;
23129;SDS011;11734;51.046;13.778;2024-01-10T09:59:26;38.50;;;24.27;;
23129;SDS011;11734;51.046;13.778;2024-01-10T10:01:53;40.50;;;23.67;;
23129;SDS011;11734;51.046;13.778;2024-01-10T10:04:21;37.40;;;23.13;;
23129;SDS011;11734;51.046;13.778;2024-01-10T10:06:57;45.13;;;24.40;;
23129;SDS011;11734;51.046;13.778;2024-01-10T10:09:25;38.97;;;23.50;;
23129;SDS011;11734;51.046;13.778;2024-01-10T10:11:54;44.40;;;25.73;;
23129;SDS011;11734;51.046;13.778;2024-01-10T10:14:21;38.40;;;23.07;;
23129;SDS011;11734;51.046;13.778;2024-01-10T10:16:49;35.80;;;21.57;;
23129;SDS011;11734;51.046;13.778;2024-01-10T10:19:26;42.87;;;24.77;;
23129;SDS011;11734;51.046;13.778;2024-01-10T10:22:09;42.30;;;25.23;;
23129;SDS011;11734;51.046;13.778;2024-01-10T10:24:37;41.80;;;24.33;;
23129;SDS011;11734;51.046;13.778;2024-01-10T10:27:09;36.77;;;23.40;;
23129;SDS011;11734;51.046;13.778;2024-01-10T10:29:37;38.20;;;24.10;;
23129;SDS011;11734;51.046;13.778;2024-01-10T10:32:06;39.10;;;23.83;;
23129;SDS011;11734;51.046;13.778;2024-01-10T10:34:35;36.80;;;23.10;;
23129;SDS011;11734;51.046;13.778;2024-01-10T10:37:02;40.93;;;24.67;;
23129;SDS011;11734;51.046;13.778;2024-01-10T10:39:30;41.87;;;24.87;;
23129;SDS011;11734;51.046;13.778;2024-01-10T10:41:57;39.03;;;22.93;;
23129;SDS011;11734;51.046;13.778;2024-01-10T10:44:25;41.87;;;23.67;;
23129;SDS011;11734;51.046;13.778;2024-01-10T10:46:54;40.73;;;23.83;;
23129;SDS011;11734;51.046;13.778;2024-01-10T10:49:37;39.63;;;23.20;;
23129;SDS011;11734;51.046;13.778;2024-01-10T10:52:09;40.50;;;23.57;;
23129;SDS011;11734;51.046;13.778;2024-01-10T10:54:37;37.40;;;23.17;;
23129;SDS011;11734;51.046;13.778;2024-01-10T10:57:05;36.97;;;22.27;;
23129;SDS011;11734;51.046;13.778;2024-01-10T10:59:32;39.83;;;22.70;;
23129;SDS011;11734;51.046;13.778;2024-01-10T11:02:03;38.37;;;22.40;;
23129;SDS011;11734;51.046;13.778;2024-01-10T11:04:32;34.90;;;21.23;;
23129;SDS011;11734;51.046;13.778;2024-01-10T11:06:59;36.63;;;21.47;;
23129;SDS011;11734;51.046;13.778;2024-01-10T11:09:27;32.03;;;20.23;;
23129;SDS011;11734;51.046;13.778;2024-01-10T11:14:56;34.03;;;21.47;;
23129;SDS011;11734;51.046;13.778;2024-01-10T11:25:37;31.70;;;21.70;;
23129;SDS011;11734;51.046;13.778;2024-01-10T11:28:04;32.87;;;23.20;;
23129;SDS011;11734;51.046;13.778;2024-01-10T11:30:34;35.03;;;21.53;;
23129;SDS011;11734;51.046;13.778;2024-01-10T11:33:02;33.33;;;22.30;;
23129;SDS011;11734;51.046;13.778;2024-01-10T11:38:31;31.90;;;21.77;;
23129;SDS011;11734;51.046;13.778;2024-01-10T11:40:59;30.77;;;21.63;;
23129;SDS011;11734;51.046;13.778;2024-01-10T11:43:28;34.77;;;23.73;;
23129;SDS011;11734;51.046;13.778;2024-01-10T11:45:56;31.13;;;20.37;;
23129;SDS011;11734;51.046;13.778;2024-01-10T11:48:26;28.20;;;20.67;;
23129;SDS011;11734;51.046;13.778;2024-01-10T11:50:54;33.10;;;21.90;;
23129;SDS011;11734;51.046;13.778;2024-01-10T11:56:09;29.00;;;20.17;;
23129;SDS011;11734;51.046;13.778;2024-01-10T11:59:01;30.93;;;21.27;;
23129;SDS011;11734;51.046;13.778;2024-01-10T12:01:30;31.33;;;21.83;;
23129;SDS011;11734;51.046;13.778;2024-01-10T12:03:58;28.17;;;20.37;;
23129;SDS011;11734;51.046;13.778;2024-01-10T12:06:43;29.43;;;21.37;;
23129;SDS011;11734;51.046;13.778;2024-01-10T12:09:13;29.73;;;21.57;;
23129;SDS011;11734;51.046;13.778;2024-01-10T12:11:41;29.60;;;20.67;;
23129;SDS011;11734;51.046;13.778;2024-01-10T12:14:08;27.90;;;19.23;;
23129;SDS011;11734;51.046;13.778;2024-01-10T12:16:36;30.77;;;20.73;;
23129;SDS011;11734;51.046;13.778;2024-01-10T12:19:05;30.20;;;20.57;;
23129;SDS011;11734;51.046;13.778;2024-01-10T12:21:32;26.03;;;19.77;;
23129;SDS011;11734;51.046;13.778;2024-01-10T12:24:00;27.87;;;19.53;;
23129;SDS011;11734;51.046;13.778;2024-01-10T12:26:32;30.67;;;21.10;;
23129;SDS011;11734;51.046;13.778;2024-01-10T12:29:00;27.33;;;19.90;;
23129;SDS011;11734;51.046;13.778;2024-01-10T12:31:30;27.97;;;19.50;;
23129;SDS011;11734;51.046;13.778;2024-01-10T12:34:01;27.50;;;19.73;;
23129;SDS011;11734;51.046;13.778;2024-01-10T12:36:33;28.00;;;19.67;;
23129;SDS011;11734;51.046;13.778;2024-01-10T12:39:00;26.90;;;19.17;;
23129;SDS011;11734;51.046;13.778;2024-01-10T12:41:28;26.07;;;18.90;;
23129;SDS011;11734;51.046;13.778;2024-01-10T12:43:55;29.33;;;19.07;;
23129;SDS011;11734;51.046;13.778;2024-01-10T12:46:23;24.70;;;17.87;;
23129;SDS011;11734;51.046;13.778;2024-01-10T12:51:27;22.63;;;16.80;;
23129;SDS011;11734;51.046;13.778;2024-01-10T12:53:59;26.50;;;18.10;;
23129;SDS011;11734;51.046;13.778;2024-01-10T12:56:27;24.53;;;17.40;;
23129;SDS011;11734;51.046;13.778;2024-01-10T12:58:55;25.40;;;17.67;;
23129;SDS011;11734;51.046;13.778;2024-01-10T13:01:23;22.03;;;17.13;;
23129;SDS011;11734;51.046;13.778;2024-01-10T13:03:50;22.83;;;17.23;;
23129;SDS011;11734;51.046;13.778;2024-01-10T13:06:19;24.73;;;16.53;;
23129;SDS011;11734;51.046;13.778;2024-01-10T13:08:49;20.03;;;15.60;;
23129;SDS011;11734;51.046;13.778;2024-01-10T13:11:16;22.63;;;16.87;;
23129;SDS011;11734;51.046;13.778;2024-01-10T13:13:44;22.93;;;15.53;;
23129;SDS011;11734;51.046;13.778;2024-01-10T13:16:11;26.37;;;17.17;;
23129;SDS011;11734;51.046;13.778;2024-01-10T13:18:39;22.13;;;16.27;;
23129;SDS011;11734;51.046;13.778;2024-01-10T13:21:08;23.17;;;15.93;;
23129;SDS011;11734;51.046;13.778;2024-01-10T13:23:36;21.67;;;14.70;;
23129;SDS011;11734;51.046;13.778;2024-01-10T13:26:04;21.00;;;14.70;;
23129;SDS011;11734;51.046;13.778;2024-01-10T13:28:31;16.13;;;10.50;;
23129;SDS011;11734;51.046;13.778;2024-01-10T13:31:00;15.77;;;11.03;;
23129;SDS011;11734;51.046;13.778;2024-01-10T13:33:29;15.70;;;9.97;;
23129;SDS011;11734;51.046;13.778;2024-01-10T13:35:57;11.57;;;8.20;;
23129;SDS011;11734;51.046;13.778;2024-01-10T13:38:25;8.77;;;6.67;;
23129;SDS011;11734;51.046;13.778;2024-01-10T13:40:53;9.57;;;6.10;;
23129;SDS011;11734;51.046;13.778;2024-01-10T13:43:20;8.37;;;5.80;;
23129;SDS011;11734;51.046;13.778;2024-01-10T13:45:47;8.63;;;6.00;;
23129;SDS011;11734;51.046;13.778;2024-01-10T13:48:15;10.27;;;5.53;;
23129;SDS011;11734;51.046;13.778;2024-01-10T13:50:42;9.17;;;5.27;;
23129;SDS011;11734;51.046;13.778;2024-01-10T13:53:11;6.73;;;4.80;;
23129;SDS011;11734;51.046;13.778;2024-01-10T13:55:39;7.10;;;4.97;;
23129;SDS011;11734;51.046;13.778;2024-01-10T13:58:07;9.77;;;4.77;;
23129;SDS011;11734;51.046;13.778;2024-01-10T14:00:34;7.30;;;5.13;;
23129;SDS011;11734;51.046;13.778;2024-01-10T14:03:07;7.17;;;4.17;;
23129;SDS011;11734;51.046;13.778;2024-01-10T14:05:35;6.23;;;4.23;;
23129;SDS011;11734;51.046;13.778;2024-01-10T14:08:02;6.90;;;4.27;;
23129;SDS011;11734;51.046;13.778;2024-01-10T14:10:30;7.77;;;4.97;;
23129;SDS011;11734;51.046;13.778;2024-01-10T14:12:57;8.10;;;5.50;;
23129;SDS011;11734;51.046;13.778;2024-01-10T14:15:25;6.97;;;4.67;;
23129;SDS011;11734;51.046;13.778;2024-01-10T14:17:52;6.43;;;4.77;;
23129;SDS011;11734;51.046;13.778;2024-01-10T14:20:20;7.60;;;4.93;;
23129;SDS011;11734;51.046;13.778;2024-01-10T14:22:47;7.83;;;4.67;;
23129;SDS011;11734;51.046;13.778;2024-01-10T14:25:16;8.00;;;5.70;;
23129;SDS011;11734;51.046;13.778;2024-01-10T14:27:43;8.90;;;6.00;;
23129;SDS011;11734;51.046;13.778;2024-01-10T14:30:11;9.87;;;6.07;;
23129;SDS011;11734;51.046;13.778;2024-01-10T14:32:40;8.50;;;5.47;;
23129;SDS011;11734;51.046;13.778;2024-01-10T14:35:08;8.07;;;5.33;;